Pintail — WDF5177 — position and weather

sailwx.info

Track history (hours):
 
Tides and Currents Weather Stations Pressure Air Temp Water Temp Dewpoint Dewpoint Depression Visibility Wind Speed Wind Dir Waves Ship Positions

Pintail

Owner: Pintail Marine Services, Inc, Friday Harbor, WA. More information available from US FCC via Universal Licensing System and Coast Guard Vessel Documentation Center.

Last reported at 2014-Oct-21 06:31 UTC. Time now 2014-Oct-21 07:07 UTC.
Position N 48°32' W 122°60'.

Length 19 m.

Type: Towing. MMSI: 367460260.

Date/timePositionNaut miles runAvg speedWind from/ knotsBaromVisibWave heightAir tempDewpointWater temp
2014-Oct-21 06:31N 48°32' W 122°60'0 0.0
2014-Oct-21 05:31N 48°32' W 122°60'0 0.0
2014-Oct-21 04:31N 48°32' W 122°60'0 0.0
2014-Oct-21 03:28N 48°32' W 122°60'0 0.0
2014-Oct-21 02:31N 48°32' W 122°60'0 0.0
2014-Oct-21 01:28N 48°32' W 122°60'0 0.0
2014-Oct-21 00:31N 48°32' W 122°60'0 0.0
2014-Oct-20 23:31N 48°32' W 122°60'0 0.0
2014-Oct-20 22:33N 48°32' W 122°60'0 0.1
2014-Oct-20 21:34N 48°32' W 123°00'0 0.2
2014-Oct-20 20:33N 48°32' W 122°60'4 4.1
2014-Oct-20 19:33N 48°33' W 122°54'6 5.5
2014-Oct-20 18:33N 48°31' W 122°47'3 1.3
2014-Oct-20 16:17N 48°32' W 122°42'5 6.1
2014-Oct-20 15:31N 48°32' W 122°49'4 4.1
2014-Oct-20 14:33N 48°34' W 122°55'4 3.8
2014-Oct-20 13:31N 48°32' W 122°60'0 0.0
2014-Oct-20 12:31N 48°32' W 122°60'0 0.0
2014-Oct-20 11:31N 48°32' W 122°60'0 0.0
2014-Oct-20 10:31N 48°32' W 122°60'0 0.0
2014-Oct-20 09:31N 48°32' W 122°60'0 0.0
2014-Oct-20 08:31N 48°32' W 122°60'0 0.0
2014-Oct-20 07:31N 48°32' W 122°60'0 0.0
2014-Oct-20 06:31N 48°32' W 122°60'0 0.0
2014-Oct-20 05:31N 48°32' W 122°60'0 0.0
2014-Oct-20 04:31N 48°32' W 122°60'0 0.0
2014-Oct-20 03:31N 48°32' W 122°60'0 0.0
2014-Oct-20 02:31N 48°32' W 122°60'0 0.0
2014-Oct-20 01:31N 48°32' W 122°60'0 0.0
2014-Oct-20 00:31N 48°32' W 122°60'0 0.0
2014-Oct-19 23:31N 48°32' W 122°60'0 0.0
2014-Oct-19 22:31N 48°32' W 122°60'0 0.0
2014-Oct-19 21:31N 48°32' W 122°60'0 0.0
2014-Oct-19 20:31N 48°32' W 122°60'0 0.0
2014-Oct-19 19:31N 48°32' W 122°60'0 0.0
2014-Oct-19 18:31N 48°32' W 122°60'0 0.0
2014-Oct-19 17:31N 48°32' W 122°60'0 0.0
2014-Oct-19 16:31N 48°32' W 122°60'0 0.0
2014-Oct-19 15:31N 48°32' W 122°60'0 0.0
2014-Oct-19 14:13N 48°32' W 122°60'0 0.0
2014-Oct-19 13:28N 48°32' W 122°60'0 0.0
2014-Oct-19 12:31N 48°32' W 122°60'0 0.0
2014-Oct-19 11:31N 48°32' W 122°60'0 0.0
2014-Oct-19 10:28N 48°32' W 122°60'0 0.0
2014-Oct-19 09:31N 48°32' W 122°60'0 0.0
2014-Oct-19 08:31N 48°32' W 122°60'0 0.0
2014-Oct-19 07:31N 48°32' W 122°60'0 0.0
2014-Oct-19 06:31N 48°32' W 122°60'0 0.0
2014-Oct-19 05:31N 48°32' W 122°60'0 0.0
2014-Oct-19 04:31N 48°32' W 122°60'0 0.0
2014-Oct-19 03:31N 48°32' W 122°60'0 0.0
2014-Oct-19 02:31N 48°32' W 122°60'0 0.0
2014-Oct-19 01:31N 48°32' W 122°60'0 0.0
2014-Oct-19 00:31N 48°32' W 122°60'0 0.0
2014-Oct-18 23:31N 48°32' W 122°60'0 0.0
2014-Oct-18 22:28N 48°32' W 122°60'0 0.0
2014-Oct-18 21:31N 48°32' W 122°60'0 0.0
2014-Oct-18 20:31N 48°32' W 122°60'0 0.0
2014-Oct-18 19:31N 48°32' W 122°60'0 0.0
2014-Oct-18 18:31N 48°32' W 122°60'0 0.0
2014-Oct-18 17:31N 48°32' W 122°60'0 0.0
2014-Oct-18 16:31N 48°32' W 122°60'0 0.0
2014-Oct-18 15:31N 48°32' W 122°60'0 0.0
2014-Oct-18 14:31N 48°32' W 122°60'0 0.0
2014-Oct-18 13:31N 48°32' W 122°60'0 0.0
2014-Oct-18 12:31N 48°32' W 122°60'0 0.0
2014-Oct-18 11:31N 48°32' W 122°60'0 0.0
2014-Oct-18 10:31N 48°32' W 122°60'0 0.0
2014-Oct-18 09:31N 48°32' W 122°60'0 0.0
2014-Oct-18 08:31N 48°32' W 122°60'0 0.0
2014-Oct-18 07:31N 48°32' W 122°60'0 0.0
2014-Oct-18 06:31N 48°32' W 122°60'0 0.0
2014-Oct-18 05:31N 48°32' W 122°60'0 0.0
2014-Oct-18 04:31N 48°32' W 122°60'0 0.0
2014-Oct-18 03:31N 48°32' W 122°60'0 0.0
2014-Oct-18 02:31N 48°32' W 122°60'0 0.0
2014-Oct-18 01:31N 48°32' W 122°60'0 0.0
2014-Oct-18 00:31N 48°32' W 122°60'0 0.0
2014-Oct-17 23:31N 48°32' W 122°60'0 0.0
2014-Oct-17 22:32N 48°32' W 122°60'0 0.0
2014-Oct-17 21:32N 48°32' W 122°60'0 0.0
2014-Oct-17 20:32N 48°32' W 122°60'4 3.9
2014-Oct-17 19:33N 48°33' W 122°55'6 5.8
2014-Oct-17 18:29N 48°31' W 122°46'2 0.8
2014-Oct-17 16:22N 48°31' W 122°43'5 6.1
2014-Oct-17 15:33N 48°33' W 122°50'5 5.2
2014-Oct-17 14:33N 48°32' W 122°58'1 1.3
2014-Oct-17 13:32N 48°32' W 122°60'0 0.0
2014-Oct-17 12:32N 48°32' W 122°60'0 0.0
2014-Oct-17 11:32N 48°32' W 122°60'0 0.0
2014-Oct-17 10:32N 48°32' W 122°60'0 0.0
2014-Oct-17 09:32N 48°32' W 122°60'0 0.0
2014-Oct-17 08:32N 48°32' W 122°60'0 0.0
2014-Oct-17 07:32N 48°32' W 122°60'0 0.0
2014-Oct-17 06:32N 48°32' W 122°60'0 0.0
2014-Oct-17 05:32N 48°32' W 122°60'0 0.0
2014-Oct-17 04:32N 48°32' W 122°60'0 0.0
2014-Oct-17 03:32N 48°32' W 122°60'0 0.0
2014-Oct-17 02:32N 48°32' W 122°60'0 0.0
2014-Oct-17 01:32N 48°32' W 122°60'0 0.0
2014-Oct-17 00:31N 48°32' W 122°60'0 0.0
2014-Oct-16 23:31N 48°32' W 122°60'0 0.0
2014-Oct-16 22:33N 48°32' W 122°60'0 0.4
2014-Oct-16 21:32N 48°32' W 123°00'0 2.7
2014-Oct-16 21:23N 48°32' W 122°60'0 0.1
2014-Oct-16 20:32N 48°32' W 123°00'0 0.5
2014-Oct-16 20:18N 48°32' W 122°60'0 0.6
2014-Oct-16 19:33N 48°32' W 123°00'0 0.5
2014-Oct-16 18:37N 48°32' W 122°60'0 0.0
2014-Oct-16 18:31N 48°32' W 122°60'0 0.0
2014-Oct-16 17:28N 48°32' W 122°60'0 0.5
2014-Oct-16 16:32N 48°32' W 123°00'1 0.5
2014-Oct-16 15:33N 48°32' W 123°00'0 0.1
2014-Oct-16 14:32N 48°32' W 122°60'0 0.0
2014-Oct-16 13:29N 48°32' W 122°60'0 0.0
2014-Oct-16 12:32N 48°32' W 122°60'0 0.0
2014-Oct-16 11:29N 48°32' W 122°60'0 0.0
2014-Oct-16 10:32N 48°32' W 122°60'0 0.0
2014-Oct-16 09:32N 48°32' W 122°60'0 0.0
2014-Oct-16 08:32N 48°32' W 122°60'0 0.0
2014-Oct-16 07:32N 48°32' W 122°60'0 0.0
2014-Oct-16 06:32N 48°32' W 122°60'0 0.0
2014-Oct-16 05:29N 48°32' W 122°60'0 0.0
2014-Oct-16 04:32N 48°32' W 122°60'0 0.0
2014-Oct-16 03:32N 48°32' W 122°60'0 0.0
2014-Oct-16 02:32N 48°32' W 122°60'0 0.0
2014-Oct-16 01:32N 48°32' W 122°60'0 0.0
2014-Oct-16 00:33N 48°32' W 122°60'0 0.0
2014-Oct-15 23:33N 48°32' W 122°60'0 0.0
2014-Oct-15 22:33N 48°32' W 122°60'0 0.0
2014-Oct-15 21:33N 48°32' W 122°60'0 0.0
2014-Oct-15 20:33N 48°32' W 122°60'0 0.0
2014-Oct-15 19:33N 48°32' W 122°60'0 0.0
2014-Oct-15 18:33N 48°32' W 122°60'0 0.0
2014-Oct-15 17:33N 48°32' W 122°60'0 0.0
2014-Oct-15 16:33N 48°32' W 122°60'0 0.0
2014-Oct-15 15:33N 48°32' W 122°60'0 0.0
2014-Oct-15 14:32N 48°32' W 122°60'0 0.0
2014-Oct-15 13:32N 48°32' W 122°60'0 0.0
2014-Oct-15 12:32N 48°32' W 122°60'0 0.0
2014-Oct-15 11:32N 48°32' W 122°60'0 0.0
2014-Oct-15 10:26N 48°32' W 122°60'0 0.0
2014-Oct-15 09:32N 48°32' W 122°60'0 0.0
2014-Oct-15 08:32N 48°32' W 122°60'0 0.0
2014-Oct-15 07:32N 48°32' W 122°60'0 0.0
2014-Oct-15 06:32N 48°32' W 122°60'0 0.0
2014-Oct-15 05:32N 48°32' W 122°60'0 0.0
2014-Oct-15 04:29N 48°32' W 122°60'0 0.0
2014-Oct-15 03:32N 48°32' W 122°60'0 0.0
2014-Oct-15 02:32N 48°32' W 122°60'0 0.0
2014-Oct-15 01:32N 48°32' W 122°60'0 0.0
2014-Oct-15 00:32N 48°32' W 122°60'0 0.0
2014-Oct-14 23:32N 48°32' W 122°60'0 0.0
2014-Oct-14 22:32N 48°32' W 122°60'0 0.0
2014-Oct-14 21:29N 48°32' W 122°60'0 0.0
2014-Oct-14 20:32N 48°32' W 122°60'0 0.0
2014-Oct-14 19:32N 48°32' W 122°60'0 0.0
2014-Oct-14 18:32N 48°32' W 122°60'0 0.0
2014-Oct-14 17:32N 48°32' W 122°60'0 0.0
2014-Oct-14 16:32N 48°32' W 122°60'0 0.0
2014-Oct-14 15:32N 48°32' W 122°60'0 0.0
2014-Oct-14 14:32N 48°32' W 122°60'0 0.0
2014-Oct-14 13:29N 48°32' W 122°60'0 0.0
2014-Oct-14 12:31N 48°32' W 122°60'0 0.0
2014-Oct-14 11:32N 48°32' W 122°60'0 0.0
2014-Oct-14 10:32N 48°32' W 122°60'0 0.0
2014-Oct-14 09:32N 48°32' W 122°60'0 0.0
2014-Oct-14 08:32N 48°32' W 122°60'0 0.0
2014-Oct-14 07:32N 48°32' W 122°60'0 0.0
2014-Oct-14 06:32N 48°32' W 122°60'0 0.0
2014-Oct-14 05:32N 48°32' W 122°60'0 0.0
2014-Oct-14 04:32N 48°32' W 122°60'0 0.0
2014-Oct-14 03:32N 48°32' W 122°60'0 0.0
2014-Oct-14 02:32N 48°32' W 122°60'0 0.0
2014-Oct-14 01:29N 48°32' W 122°60'0 0.0
2014-Oct-14 00:32N 48°32' W 122°60'0 0.0
2014-Oct-13 23:32N 48°32' W 122°60'0 0.0
2014-Oct-13 22:32N 48°32' W 122°60'0 0.0
2014-Oct-13 21:32N 48°32' W 122°60'0 0.0
2014-Oct-13 20:32N 48°32' W 122°60'3 3.4
2014-Oct-13 19:33N 48°33' W 122°55'6 5.7
2014-Oct-13 18:33N 48°32' W 122°47'3 1.3
2014-Oct-13 16:30N 48°32' W 122°43'5 5.8
2014-Oct-13 15:33N 48°33' W 122°51'6 5.5
2014-Oct-13 14:33N 48°32' W 122°59'1 0.8
2014-Oct-13 13:32N 48°32' W 122°60'0 0.0
2014-Oct-13 12:32N 48°32' W 122°60'0 0.0
2014-Oct-13 11:32N 48°32' W 122°60'0 0.0
2014-Oct-13 10:32N 48°32' W 122°60'0 0.0
2014-Oct-13 09:32N 48°32' W 122°60'0 0.0
2014-Oct-13 08:32N 48°32' W 122°60'0 0.0
2014-Oct-13 07:32N 48°32' W 122°60'0 0.0
2014-Oct-13 06:32N 48°32' W 122°60'0 0.0
2014-Oct-13 05:32N 48°32' W 122°60'0 0.0
2014-Oct-13 04:32N 48°32' W 122°60'0 0.0
2014-Oct-13 03:32N 48°32' W 122°60'0 0.0
2014-Oct-13 02:32N 48°32' W 122°60'0 0.0
2014-Oct-13 01:32N 48°32' W 122°60'0 0.0
2014-Oct-13 00:32N 48°32' W 122°60'0 0.0
2014-Oct-12 23:32N 48°32' W 122°60'0 0.0
2014-Oct-12 22:32N 48°32' W 122°60'0 0.0
2014-Oct-12 21:32N 48°32' W 122°60'0 0.0
2014-Oct-12 20:32N 48°32' W 122°60'0 0.0
2014-Oct-12 19:32N 48°32' W 122°60'0 0.0
2014-Oct-12 18:32N 48°32' W 122°60'0 0.0
2014-Oct-12 17:32N 48°32' W 122°60'0 0.0
2014-Oct-12 16:32N 48°32' W 122°60'0 0.0
2014-Oct-12 15:32N 48°32' W 122°60'0 0.0
2014-Oct-12 14:32N 48°32' W 122°60'0 0.0
2014-Oct-12 13:32N 48°32' W 122°60'0 0.0
2014-Oct-12 12:32N 48°32' W 122°60'0 0.0
2014-Oct-12 11:26N 48°32' W 122°60'0 0.0
2014-Oct-12 10:32N 48°32' W 122°60'0 0.0
2014-Oct-12 09:32N 48°32' W 122°60'0 0.0
2014-Oct-12 08:32N 48°32' W 122°60'0 0.0
2014-Oct-12 07:32N 48°32' W 122°60'0 0.0
2014-Oct-12 06:32N 48°32' W 122°60'0 0.0
2014-Oct-12 05:32N 48°32' W 122°60'0 0.0
2014-Oct-12 04:32N 48°32' W 122°60'0 0.0
2014-Oct-12 03:29N 48°32' W 122°60'0 0.0
2014-Oct-12 02:29N 48°32' W 122°60'0 0.0
2014-Oct-12 01:32N 48°32' W 122°60'0 0.0
2014-Oct-12 00:29N 48°32' W 122°60'0 0.0
2014-Oct-11 23:32N 48°32' W 122°60'0 0.0
2014-Oct-11 22:29N 48°32' W 122°60'0 0.0
2014-Oct-11 21:32N 48°32' W 122°60'0 0.0
2014-Oct-11 20:32N 48°32' W 122°60'0 0.0
2014-Oct-11 19:32N 48°32' W 122°60'0 0.0
2014-Oct-11 18:32N 48°32' W 122°60'0 0.0
2014-Oct-11 17:32N 48°32' W 122°60'0 0.0
2014-Oct-11 16:32N 48°32' W 122°60'0 0.0
2014-Oct-11 15:32N 48°32' W 122°60'0 0.0
2014-Oct-11 14:32N 48°32' W 122°60'0 0.0
2014-Oct-11 13:32N 48°32' W 122°60'0 0.0
2014-Oct-11 12:32N 48°32' W 122°60'0 0.0
2014-Oct-11 11:31N 48°32' W 122°60'0 0.0
2014-Oct-11 10:28N 48°32' W 122°60'0 0.0
2014-Oct-11 09:28N 48°32' W 122°60'0 0.0
2014-Oct-11 08:31N 48°32' W 122°60'0 0.0
2014-Oct-11 07:31N 48°32' W 122°60'0 0.0
2014-Oct-11 06:31N 48°32' W 122°60'  
Track history (hours):
 
Tides and Currents Weather Stations Pressure Air Temp Water Temp Dewpoint Dewpoint Depression Visibility Wind Speed Wind Dir Waves Ship Positions

Pintail

Owner: Pintail Marine Services, Inc, Friday Harbor, WA. More information available from US FCC via Universal Licensing System and Coast Guard Vessel Documentation Center.

Last reported at 2014-Oct-21 06:31 UTC. Time now 2014-Oct-21 07:07 UTC.
Position N 48°32' W 122°60'.

Length 19 m.

Type: Towing. MMSI: 367460260.

Date/timePositionNaut miles runAvg speedWind from/ knotsBaromVisibWave heightAir tempDewpointWater temp
2014-Oct-21 06:31N 48°32' W 122°60'0 0.0
2014-Oct-21 05:31N 48°32' W 122°60'0 0.0
2014-Oct-21 04:31N 48°32' W 122°60'0 0.0
2014-Oct-21 03:28N 48°32' W 122°60'0 0.0
2014-Oct-21 02:31N 48°32' W 122°60'0 0.0
2014-Oct-21 01:28N 48°32' W 122°60'0 0.0
2014-Oct-21 00:31N 48°32' W 122°60'0 0.0
2014-Oct-20 23:31N 48°32' W 122°60'0 0.0
2014-Oct-20 22:33N 48°32' W 122°60'0 0.1
2014-Oct-20 21:34N 48°32' W 123°00'0 0.2
2014-Oct-20 20:33N 48°32' W 122°60'4 4.1
2014-Oct-20 19:33N 48°33' W 122°54'6 5.5
2014-Oct-20 18:33N 48°31' W 122°47'3 1.3
2014-Oct-20 16:17N 48°32' W 122°42'5 6.1
2014-Oct-20 15:31N 48°32' W 122°49'4 4.1
2014-Oct-20 14:33N 48°34' W 122°55'4 3.8
2014-Oct-20 13:31N 48°32' W 122°60'0 0.0
2014-Oct-20 12:31N 48°32' W 122°60'0 0.0
2014-Oct-20 11:31N 48°32' W 122°60'0 0.0
2014-Oct-20 10:31N 48°32' W 122°60'0 0.0
2014-Oct-20 09:31N 48°32' W 122°60'0 0.0
2014-Oct-20 08:31N 48°32' W 122°60'0 0.0
2014-Oct-20 07:31N 48°32' W 122°60'0 0.0
2014-Oct-20 06:31N 48°32' W 122°60'0 0.0
2014-Oct-20 05:31N 48°32' W 122°60'0 0.0
2014-Oct-20 04:31N 48°32' W 122°60'0 0.0
2014-Oct-20 03:31N 48°32' W 122°60'0 0.0
2014-Oct-20 02:31N 48°32' W 122°60'0 0.0
2014-Oct-20 01:31N 48°32' W 122°60'0 0.0
2014-Oct-20 00:31N 48°32' W 122°60'0 0.0
2014-Oct-19 23:31N 48°32' W 122°60'0 0.0
2014-Oct-19 22:31N 48°32' W 122°60'0 0.0
2014-Oct-19 21:31N 48°32' W 122°60'0 0.0
2014-Oct-19 20:31N 48°32' W 122°60'0 0.0
2014-Oct-19 19:31N 48°32' W 122°60'0 0.0
2014-Oct-19 18:31N 48°32' W 122°60'0 0.0
2014-Oct-19 17:31N 48°32' W 122°60'0 0.0
2014-Oct-19 16:31N 48°32' W 122°60'0 0.0
2014-Oct-19 15:31N 48°32' W 122°60'0 0.0
2014-Oct-19 14:13N 48°32' W 122°60'0 0.0
2014-Oct-19 13:28N 48°32' W 122°60'0 0.0
2014-Oct-19 12:31N 48°32' W 122°60'0 0.0
2014-Oct-19 11:31N 48°32' W 122°60'0 0.0
2014-Oct-19 10:28N 48°32' W 122°60'0 0.0
2014-Oct-19 09:31N 48°32' W 122°60'0 0.0
2014-Oct-19 08:31N 48°32' W 122°60'0 0.0
2014-Oct-19 07:31N 48°32' W 122°60'0 0.0
2014-Oct-19 06:31N 48°32' W 122°60'0 0.0
2014-Oct-19 05:31N 48°32' W 122°60'0 0.0
2014-Oct-19 04:31N 48°32' W 122°60'0 0.0
2014-Oct-19 03:31N 48°32' W 122°60'0 0.0
2014-Oct-19 02:31N 48°32' W 122°60'0 0.0
2014-Oct-19 01:31N 48°32' W 122°60'0 0.0
2014-Oct-19 00:31N 48°32' W 122°60'0 0.0
2014-Oct-18 23:31N 48°32' W 122°60'0 0.0
2014-Oct-18 22:28N 48°32' W 122°60'0 0.0
2014-Oct-18 21:31N 48°32' W 122°60'0 0.0
2014-Oct-18 20:31N 48°32' W 122°60'0 0.0
2014-Oct-18 19:31N 48°32' W 122°60'0 0.0
2014-Oct-18 18:31N 48°32' W 122°60'0 0.0
2014-Oct-18 17:31N 48°32' W 122°60'0 0.0
2014-Oct-18 16:31N 48°32' W 122°60'0 0.0
2014-Oct-18 15:31N 48°32' W 122°60'0 0.0
2014-Oct-18 14:31N 48°32' W 122°60'0 0.0
2014-Oct-18 13:31N 48°32' W 122°60'0 0.0
2014-Oct-18 12:31N 48°32' W 122°60'0 0.0
2014-Oct-18 11:31N 48°32' W 122°60'0 0.0
2014-Oct-18 10:31N 48°32' W 122°60'0 0.0
2014-Oct-18 09:31N 48°32' W 122°60'0 0.0
2014-Oct-18 08:31N 48°32' W 122°60'0 0.0
2014-Oct-18 07:31N 48°32' W 122°60'0 0.0
2014-Oct-18 06:31N 48°32' W 122°60'0 0.0
2014-Oct-18 05:31N 48°32' W 122°60'0 0.0
2014-Oct-18 04:31N 48°32' W 122°60'0 0.0
2014-Oct-18 03:31N 48°32' W 122°60'0 0.0
2014-Oct-18 02:31N 48°32' W 122°60'0 0.0
2014-Oct-18 01:31N 48°32' W 122°60'0 0.0
2014-Oct-18 00:31N 48°32' W 122°60'0 0.0
2014-Oct-17 23:31N 48°32' W 122°60'0 0.0
2014-Oct-17 22:32N 48°32' W 122°60'0 0.0
2014-Oct-17 21:32N 48°32' W 122°60'0 0.0
2014-Oct-17 20:32N 48°32' W 122°60'4 3.9
2014-Oct-17 19:33N 48°33' W 122°55'6 5.8
2014-Oct-17 18:29N 48°31' W 122°46'2 0.8
2014-Oct-17 16:22N 48°31' W 122°43'5 6.1
2014-Oct-17 15:33N 48°33' W 122°50'5 5.2
2014-Oct-17 14:33N 48°32' W 122°58'1 1.3
2014-Oct-17 13:32N 48°32' W 122°60'0 0.0
2014-Oct-17 12:32N 48°32' W 122°60'0 0.0
2014-Oct-17 11:32N 48°32' W 122°60'0 0.0
2014-Oct-17 10:32N 48°32' W 122°60'0 0.0
2014-Oct-17 09:32N 48°32' W 122°60'0 0.0
2014-Oct-17 08:32N 48°32' W 122°60'0 0.0
2014-Oct-17 07:32N 48°32' W 122°60'0 0.0
2014-Oct-17 06:32N 48°32' W 122°60'0 0.0
2014-Oct-17 05:32N 48°32' W 122°60'0 0.0
2014-Oct-17 04:32N 48°32' W 122°60'0 0.0
2014-Oct-17 03:32N 48°32' W 122°60'0 0.0
2014-Oct-17 02:32N 48°32' W 122°60'0 0.0
2014-Oct-17 01:32N 48°32' W 122°60'0 0.0
2014-Oct-17 00:31N 48°32' W 122°60'0 0.0
2014-Oct-16 23:31N 48°32' W 122°60'0 0.0
2014-Oct-16 22:33N 48°32' W 122°60'0 0.4
2014-Oct-16 21:32N 48°32' W 123°00'0 2.7
2014-Oct-16 21:23N 48°32' W 122°60'0 0.1
2014-Oct-16 20:32N 48°32' W 123°00'0 0.5
2014-Oct-16 20:18N 48°32' W 122°60'0 0.6
2014-Oct-16 19:33N 48°32' W 123°00'0 0.5
2014-Oct-16 18:37N 48°32' W 122°60'0 0.0
2014-Oct-16 18:31N 48°32' W 122°60'0 0.0
2014-Oct-16 17:28N 48°32' W 122°60'0 0.5
2014-Oct-16 16:32N 48°32' W 123°00'1 0.5
2014-Oct-16 15:33N 48°32' W 123°00'0 0.1
2014-Oct-16 14:32N 48°32' W 122°60'0 0.0
2014-Oct-16 13:29N 48°32' W 122°60'0 0.0
2014-Oct-16 12:32N 48°32' W 122°60'0 0.0
2014-Oct-16 11:29N 48°32' W 122°60'0 0.0
2014-Oct-16 10:32N 48°32' W 122°60'0 0.0
2014-Oct-16 09:32N 48°32' W 122°60'0 0.0
2014-Oct-16 08:32N 48°32' W 122°60'0 0.0
2014-Oct-16 07:32N 48°32' W 122°60'0 0.0
2014-Oct-16 06:32N 48°32' W 122°60'0 0.0
2014-Oct-16 05:29N 48°32' W 122°60'0 0.0
2014-Oct-16 04:32N 48°32' W 122°60'0 0.0
2014-Oct-16 03:32N 48°32' W 122°60'0 0.0
2014-Oct-16 02:32N 48°32' W 122°60'0 0.0
2014-Oct-16 01:32N 48°32' W 122°60'0 0.0
2014-Oct-16 00:33N 48°32' W 122°60'0 0.0
2014-Oct-15 23:33N 48°32' W 122°60'0 0.0
2014-Oct-15 22:33N 48°32' W 122°60'0 0.0
2014-Oct-15 21:33N 48°32' W 122°60'0 0.0
2014-Oct-15 20:33N 48°32' W 122°60'0 0.0
2014-Oct-15 19:33N 48°32' W 122°60'0 0.0
2014-Oct-15 18:33N 48°32' W 122°60'0 0.0
2014-Oct-15 17:33N 48°32' W 122°60'0 0.0
2014-Oct-15 16:33N 48°32' W 122°60'0 0.0
2014-Oct-15 15:33N 48°32' W 122°60'0 0.0
2014-Oct-15 14:32N 48°32' W 122°60'0 0.0
2014-Oct-15 13:32N 48°32' W 122°60'0 0.0
2014-Oct-15 12:32N 48°32' W 122°60'0 0.0
2014-Oct-15 11:32N 48°32' W 122°60'0 0.0
2014-Oct-15 10:26N 48°32' W 122°60'0 0.0
2014-Oct-15 09:32N 48°32' W 122°60'0 0.0
2014-Oct-15 08:32N 48°32' W 122°60'0 0.0
2014-Oct-15 07:32N 48°32' W 122°60'0 0.0
2014-Oct-15 06:32N 48°32' W 122°60'0 0.0
2014-Oct-15 05:32N 48°32' W 122°60'0 0.0
2014-Oct-15 04:29N 48°32' W 122°60'0 0.0
2014-Oct-15 03:32N 48°32' W 122°60'0 0.0
2014-Oct-15 02:32N 48°32' W 122°60'0 0.0
2014-Oct-15 01:32N 48°32' W 122°60'0 0.0
2014-Oct-15 00:32N 48°32' W 122°60'0 0.0
2014-Oct-14 23:32N 48°32' W 122°60'0 0.0
2014-Oct-14 22:32N 48°32' W 122°60'0 0.0
2014-Oct-14 21:29N 48°32' W 122°60'0 0.0
2014-Oct-14 20:32N 48°32' W 122°60'0 0.0
2014-Oct-14 19:32N 48°32' W 122°60'0 0.0
2014-Oct-14 18:32N 48°32' W 122°60'0 0.0
2014-Oct-14 17:32N 48°32' W 122°60'0 0.0
2014-Oct-14 16:32N 48°32' W 122°60'0 0.0
2014-Oct-14 15:32N 48°32' W 122°60'0 0.0
2014-Oct-14 14:32N 48°32' W 122°60'0 0.0
2014-Oct-14 13:29N 48°32' W 122°60'0 0.0
2014-Oct-14 12:31N 48°32' W 122°60'0 0.0
2014-Oct-14 11:32N 48°32' W 122°60'0 0.0
2014-Oct-14 10:32N 48°32' W 122°60'0 0.0
2014-Oct-14 09:32N 48°32' W 122°60'0 0.0
2014-Oct-14 08:32N 48°32' W 122°60'0 0.0
2014-Oct-14 07:32N 48°32' W 122°60'0 0.0
2014-Oct-14 06:32N 48°32' W 122°60'0 0.0
2014-Oct-14 05:32N 48°32' W 122°60'0 0.0
2014-Oct-14 04:32N 48°32' W 122°60'0 0.0
2014-Oct-14 03:32N 48°32' W 122°60'0 0.0
2014-Oct-14 02:32N 48°32' W 122°60'0 0.0
2014-Oct-14 01:29N 48°32' W 122°60'0 0.0
2014-Oct-14 00:32N 48°32' W 122°60'0 0.0
2014-Oct-13 23:32N 48°32' W 122°60'0 0.0
2014-Oct-13 22:32N 48°32' W 122°60'0 0.0
2014-Oct-13 21:32N 48°32' W 122°60'0 0.0
2014-Oct-13 20:32N 48°32' W 122°60'3 3.4
2014-Oct-13 19:33N 48°33' W 122°55'6 5.7
2014-Oct-13 18:33N 48°32' W 122°47'3 1.3
2014-Oct-13 16:30N 48°32' W 122°43'5 5.8
2014-Oct-13 15:33N 48°33' W 122°51'6 5.5
2014-Oct-13 14:33N 48°32' W 122°59'1 0.8
2014-Oct-13 13:32N 48°32' W 122°60'0 0.0
2014-Oct-13 12:32N 48°32' W 122°60'0 0.0
2014-Oct-13 11:32N 48°32' W 122°60'0 0.0
2014-Oct-13 10:32N 48°32' W 122°60'0 0.0
2014-Oct-13 09:32N 48°32' W 122°60'0 0.0
2014-Oct-13 08:32N 48°32' W 122°60'0 0.0
2014-Oct-13 07:32N 48°32' W 122°60'0 0.0
2014-Oct-13 06:32N 48°32' W 122°60'0 0.0
2014-Oct-13 05:32N 48°32' W 122°60'0 0.0
2014-Oct-13 04:32N 48°32' W 122°60'0 0.0
2014-Oct-13 03:32N 48°32' W 122°60'0 0.0
2014-Oct-13 02:32N 48°32' W 122°60'0 0.0
2014-Oct-13 01:32N 48°32' W 122°60'0 0.0
2014-Oct-13 00:32N 48°32' W 122°60'0 0.0
2014-Oct-12 23:32N 48°32' W 122°60'0 0.0
2014-Oct-12 22:32N 48°32' W 122°60'0 0.0
2014-Oct-12 21:32N 48°32' W 122°60'0 0.0
2014-Oct-12 20:32N 48°32' W 122°60'0 0.0
2014-Oct-12 19:32N 48°32' W 122°60'0 0.0
2014-Oct-12 18:32N 48°32' W 122°60'0 0.0
2014-Oct-12 17:32N 48°32' W 122°60'0 0.0
2014-Oct-12 16:32N 48°32' W 122°60'0 0.0
2014-Oct-12 15:32N 48°32' W 122°60'0 0.0
2014-Oct-12 14:32N 48°32' W 122°60'0 0.0
2014-Oct-12 13:32N 48°32' W 122°60'0 0.0
2014-Oct-12 12:32N 48°32' W 122°60'0 0.0
2014-Oct-12 11:26N 48°32' W 122°60'0 0.0
2014-Oct-12 10:32N 48°32' W 122°60'0 0.0
2014-Oct-12 09:32N 48°32' W 122°60'0 0.0
2014-Oct-12 08:32N 48°32' W 122°60'0 0.0
2014-Oct-12 07:32N 48°32' W 122°60'0 0.0
2014-Oct-12 06:32N 48°32' W 122°60'0 0.0
2014-Oct-12 05:32N 48°32' W 122°60'0 0.0
2014-Oct-12 04:32N 48°32' W 122°60'0 0.0
2014-Oct-12 03:29N 48°32' W 122°60'0 0.0
2014-Oct-12 02:29N 48°32' W 122°60'0 0.0
2014-Oct-12 01:32N 48°32' W 122°60'0 0.0
2014-Oct-12 00:29N 48°32' W 122°60'0 0.0
2014-Oct-11 23:32N 48°32' W 122°60'0 0.0
2014-Oct-11 22:29N 48°32' W 122°60'0 0.0
2014-Oct-11 21:32N 48°32' W 122°60'0 0.0
2014-Oct-11 20:32N 48°32' W 122°60'0 0.0
2014-Oct-11 19:32N 48°32' W 122°60'0 0.0
2014-Oct-11 18:32N 48°32' W 122°60'0 0.0
2014-Oct-11 17:32N 48°32' W 122°60'0 0.0
2014-Oct-11 16:32N 48°32' W 122°60'0 0.0
2014-Oct-11 15:32N 48°32' W 122°60'0 0.0
2014-Oct-11 14:32N 48°32' W 122°60'0 0.0
2014-Oct-11 13:32N 48°32' W 122°60'0 0.0
2014-Oct-11 12:32N 48°32' W 122°60'0 0.0
2014-Oct-11 11:31N 48°32' W 122°60'0 0.0
2014-Oct-11 10:28N 48°32' W 122°60'0 0.0
2014-Oct-11 09:28N 48°32' W 122°60'0 0.0
2014-Oct-11 08:31N 48°32' W 122°60'0 0.0
2014-Oct-11 07:31N 48°32' W 122°60'0 0.0
2014-Oct-11 06:31N 48°32' W 122°60'  

Dump ship's entire track history